Time;durP1;ratioP1;P1;durP2;ratioP2;P2;SDS_P1;SDS_P2;PMS_P1;PMS_P2;Temp;Humidity;BMP_temperature;BMP_pressure;BME280_temperature;BME280_humidity;BME280_pressure;Samples;Min_cycle;Max_cycle;Signal;HPM_P1;HPM_P2
2021/08/06 00:13:39;;;;;;;6.90;6.20;;;;;;;15.16;100.00;99922.03;5027774;28;20225;-73
2021/08/06 00:16:23;;;;;;;6.90;6.20;;;;;;;15.19;100.00;99923.66;5020952;28;20215;-74
2021/08/06 00:18:51;;;;;;;7.33;5.50;;;;;;;15.17;100.00;99925.53;5027592;28;20202;-74
2021/08/06 00:21:18;;;;;;;5.57;4.97;;;;;;;15.16;100.00;99932.53;5033234;28;20237;-74
2021/08/06 00:23:44;;;;;;;5.10;4.60;;;;;;;15.16;100.00;99924.66;5011701;28;20200;-74
2021/08/06 00:26:11;;;;;;;7.53;5.13;;;;;;;15.17;100.00;99928.16;5034674;28;20189;-74
2021/08/06 00:28:39;;;;;;;5.33;4.83;;;;;;;15.19;100.00;99927.13;5035719;28;20306;-74
2021/08/06 00:46:50;;;;;;;5.13;4.63;;;;;;;15.22;100.00;99934.00;5028312;28;20695;-73
2021/08/06 00:53:08;;;;;;;5.40;4.77;;;;;;;15.19;100.00;99932.38;5032359;28;20215;-74
2021/08/06 00:55:38;;;;;;;5.27;4.77;;;;;;;15.20;100.00;99928.00;5010230;28;20219;-73
2021/08/06 00:58:13;;;;;;;6.53;5.20;;;;;;;15.21;100.00;99930.50;5011009;28;20207;-73
2021/08/06 01:00:41;;;;;;;5.70;5.10;;;;;;;15.21;100.00;99935.75;5010997;28;20218;-74
2021/08/06 01:03:19;;;;;;;6.27;5.67;;;;;;;15.15;100.00;99925.63;5011728;28;20223;-74
2021/08/06 01:05:52;;;;;;;5.77;4.90;;;;;;;15.15;100.00;99936.13;5018448;28;20742;-74
2021/08/06 01:08:24;;;;;;;6.90;5.10;;;;;;;15.12;100.00;99934.50;5021562;28;20227;-74
2021/08/06 01:10:58;;;;;;;7.07;4.50;;;;;;;15.11;100.00;99934.59;5015828;28;20225;-74
2021/08/06 01:13:31;;;;;;;5.17;4.67;;;;;;;15.17;100.00;99933.41;5021733;28;20231;-74
2021/08/06 01:16:08;;;;;;;5.40;4.90;;;;;;;15.15;100.00;99933.50;5034158;28;20600;-74
2021/08/06 01:18:43;;;;;;;6.47;5.30;;;;;;;15.11;100.00;99931.97;5009033;28;20207;-74
2021/08/06 01:21:18;;;;;;;5.67;4.63;;;;;;;15.15;100.00;99928.25;5034661;28;20753;-74
2021/08/06 01:23:48;;;;;;;4.93;4.53;;;;;;;15.13;100.00;99933.56;5031302;28;20204;-74
2021/08/06 01:26:19;;;;;;;5.30;4.73;;;;;;;15.13;100.00;99920.44;5014203;28;20228;-74
2021/08/06 01:28:56;;;;;;;5.33;4.83;;;;;;;15.13;100.00;99923.06;5020072;28;20766;-73
2021/08/06 01:32:20;;;;;;;5.50;5.00;;;;;;;15.08;100.00;99921.66;5010027;28;20542;-74
2021/08/06 01:34:48;;;;;;;5.20;4.50;;;;;;;15.06;100.00;99916.47;5010169;28;20262;-74
2021/08/06 01:37:15;;;;;;;5.07;4.50;;;;;;;15.03;100.00;99919.25;5012888;28;20219;-74
2021/08/06 01:39:46;;;;;;;5.40;4.90;;;;;;;14.99;100.00;99917.75;5019321;28;20400;-74
2021/08/06 01:42:24;;;;;;;6.23;4.63;;;;;;;14.99;100.00;99923.00;5012312;28;20230;-73
2021/08/06 01:44:56;;;;;;;5.60;5.10;;;;;;;14.96;100.00;99925.78;5012006;28;20200;-75
2021/08/06 01:47:38;;;;;;;6.10;5.50;;;;;;;14.98;100.00;99915.22;5013392;28;20530;-74
2021/08/06 01:50:10;;;;;;;6.53;5.10;;;;;;;14.97;100.00;99909.13;5011990;28;20608;-72
2021/08/06 01:52:42;;;;;;;5.43;4.93;;;;;;;15.01;100.00;99908.00;5015006;28;20216;-73
2021/08/06 01:55:14;;;;;;;6.20;4.97;;;;;;;15.03;100.00;99905.31;5016376;28;20708;-74
2021/08/06 01:57:50;;;;;;;6.03;5.43;;;;;;;15.04;100.00;99907.84;5010354;28;20268;-74
2021/08/06 02:00:18;;;;;;;5.27;4.77;;;;;;;15.06;100.00;99905.13;5010706;28;20265;-73
2021/08/06 02:02:44;;;;;;;5.90;5.30;;;;;;;15.08;100.00;99909.34;5029947;28;20245;-74
2021/08/06 02:05:17;;;;;;;6.20;5.60;;;;;;;15.07;100.00;99899.78;5017245;28;20214;-73
2021/08/06 02:07:47;;;;;;;7.73;5.17;;;;;;;15.08;100.00;99901.47;5014405;28;20203;-74
2021/08/06 02:10:15;;;;;;;8.53;5.47;;;;;;;15.08;100.00;99898.84;5010650;28;20215;-73
2021/08/06 02:12:42;;;;;;;5.60;4.93;;;;;;;15.06;100.00;99899.88;5022043;28;20311;-74
2021/08/06 02:15:14;;;;;;;7.80;5.57;;;;;;;15.04;100.00;99897.34;5011545;28;20305;-71
2021/08/06 02:17:43;;;;;;;6.53;5.47;;;;;;;15.10;100.00;99890.91;5010416;28;20510;-72
2021/08/06 02:20:36;;;;;;;5.97;5.10;;;;;;;15.11;100.00;99892.59;5011467;28;20517;-74
2021/08/06 02:23:07;;;;;;;7.07;5.80;;;;;;;15.09;100.00;99891.81;5012961;28;20710;-74
2021/08/06 02:25:39;;;;;;;6.10;5.50;;;;;;;15.04;100.00;99891.22;5015210;28;20285;-74
2021/08/06 02:28:07;;;;;;;5.50;5.00;;;;;;;15.04;100.00;99884.22;5011143;28;20197;-74
2021/08/06 02:30:40;;;;;;;6.43;5.40;;;;;;;15.00;100.00;99885.31;5016285;28;20258;-74
2021/08/06 02:33:07;;;;;;;5.70;5.10;;;;;;;15.01;100.00;99878.28;5010576;28;20227;-74
2021/08/06 02:35:33;;;;;;;6.27;5.33;;;;;;;15.01;100.00;99884.38;5017066;28;20420;-73
2021/08/06 02:37:59;;;;;;;6.27;5.37;;;;;;;15.03;100.00;99881.69;5011129;28;20876;-75
2021/08/06 02:40:26;;;;;;;5.90;5.30;;;;;;;15.03;100.00;99882.50;5034220;28;20541;-74
2021/08/06 02:42:55;;;;;;;5.63;5.13;;;;;;;15.00;100.00;99877.44;5011858;28;20239;-73
2021/08/06 02:45:22;;;;;;;6.87;5.87;;;;;;;14.96;100.00;99876.75;5013580;28;20213;-74
2021/08/06 02:47:50;;;;;;;5.93;5.33;;;;;;;14.93;100.00;99876.94;5014845;28;20205;-74
2021/08/06 02:50:16;;;;;;;6.83;6.07;;;;;;;14.96;100.00;99874.13;5014037;28;20210;-74
2021/08/06 02:52:43;;;;;;;6.13;5.53;;;;;;;15.00;100.00;99877.44;5033238;28;20227;-74
2021/08/06 02:55:10;;;;;;;7.80;6.47;;;;;;;14.98;100.00;99873.22;5035413;28;20202;-74
2021/08/06 02:57:37;;;;;;;7.13;6.40;;;;;;;14.96;100.00;99868.88;5014223;28;20293;-74
2021/08/06 03:00:06;;;;;;;8.40;6.07;;;;;;;14.92;100.00;99871.78;5010050;28;20323;-73
2021/08/06 03:02:34;;;;;;;6.50;5.90;;;;;;;14.88;100.00;99867.63;5009222;28;20223;-72
2021/08/06 03:05:02;;;;;;;7.23;6.53;;;;;;;14.86;100.00;99861.63;5025775;28;20617;-74
2021/08/06 03:07:29;;;;;;;7.70;6.90;;;;;;;14.86;100.00;99862.47;5015410;28;20265;-74
2021/08/06 03:09:55;;;;;;;7.30;6.60;;;;;;;14.85;100.00;99859.94;5012434;28;20242;-74
2021/08/06 03:12:25;;;;;;;7.23;6.53;;;;;;;14.84;100.00;99859.06;5012875;28;20380;-74
2021/08/06 03:14:51;;;;;;;8.10;6.60;;;;;;;14.84;100.00;99859.06;5009160;28;20214;-74
2021/08/06 03:17:19;;;;;;;6.97;6.27;;;;;;;14.85;100.00;99858.16;5013946;28;20303;-74
2021/08/06 03:19:50;;;;;;;7.17;6.47;;;;;;;14.80;100.00;99859.34;5012019;28;21110;-74
2021/08/06 03:22:20;;;;;;;6.93;6.23;;;;;;;14.79;100.00;99853.22;5015456;28;20222;-73
2021/08/06 03:24:46;;;;;;;8.77;6.50;;;;;;;14.82;100.00;99858.31;5033087;28;20207;-73
2021/08/06 03:27:14;;;;;;;7.33;6.63;;;;;;;14.77;100.00;99848.09;5012968;28;20244;-74
2021/08/06 03:29:40;;;;;;;7.30;6.43;;;;;;;14.75;100.00;99844.69;5014207;28;20228;-73
2021/08/06 03:32:07;;;;;;;7.13;6.43;;;;;;;14.74;100.00;99853.50;5030561;28;20226;-74
2021/08/06 03:34:35;;;;;;;8.33;6.03;;;;;;;14.77;100.00;99852.47;5012509;28;20318;-74
2021/08/06 03:37:04;;;;;;;6.93;6.23;;;;;;;14.74;100.00;99850.88;5032726;28;20703;-74
2021/08/06 03:39:32;;;;;;;7.33;6.57;;;;;;;14.76;100.00;99854.25;5026409;28;20281;-73
2021/08/06 03:42:01;;;;;;;7.37;6.30;;;;;;;14.77;100.00;99848.09;5014672;28;20504;-74
2021/08/06 03:44:27;;;;;;;7.97;7.17;;;;;;;14.77;100.00;99848.09;5012422;28;20206;-72
2021/08/06 03:46:54;;;;;;;8.07;7.27;;;;;;;14.74;100.00;99845.63;5006842;28;20262;-74
2021/08/06 03:49:21;;;;;;;8.20;7.40;;;;;;;14.69;100.00;99841.59;5008356;28;20211;-73
2021/08/06 03:51:48;;;;;;;8.53;6.97;;;;;;;14.68;100.00;99839.88;5016289;28;20264;-74
2021/08/06 03:54:14;;;;;;;8.40;6.73;;;;;;;14.72;100.00;99837.00;5015357;28;20240;-74
2021/08/06 03:56:44;;;;;;;7.60;6.90;;;;;;;14.73;100.00;99836.06;5011143;28;20309;-74
2021/08/06 03:59:11;;;;;;;7.30;6.60;;;;;;;14.70;100.00;99835.38;5009178;28;20210;-74
2021/08/06 04:01:40;;;;;;;7.70;6.67;;;;;;;14.69;100.00;99833.72;5008448;28;20238;-72
2021/08/06 04:04:07;;;;;;;7.73;6.93;;;;;;;14.65;100.00;99835.66;5011469;28;20205;-74
2021/08/06 04:06:35;;;;;;;7.57;6.67;;;;;;;14.68;100.00;99839.88;5009240;28;20208;-74
2021/08/06 04:09:02;;;;;;;7.43;6.53;;;;;;;14.73;100.00;99836.06;5010231;28;20212;-71
2021/08/06 04:11:29;;;;;;;8.70;7.73;;;;;;;14.76;100.00;99842.94;5037019;28;20214;-74
2021/08/06 04:13:57;;;;;;;7.97;7.10;;;;;;;14.71;100.00;99832.69;5025175;28;20241;-74
2021/08/06 04:16:24;;;;;;;8.27;7.47;;;;;;;14.70;100.00;99830.13;5008564;28;20745;-74
2021/08/06 04:18:51;;;;;;;7.93;7.13;;;;;;;14.73;100.00;99832.59;5027920;28;20633;-74
2021/08/06 04:21:18;;;;;;;8.37;7.33;;;;;;;14.77;100.00;99836.72;5009786;28;20230;-75
2021/08/06 04:23:44;;;;;;;7.80;7.00;;;;;;;14.73;100.00;99845.72;5014007;28;20196;-73
2021/08/06 04:26:11;;;;;;;8.63;7.47;;;;;;;14.74;100.00;99844.81;5029725;28;20219;-73
2021/08/06 04:28:38;;;;;;;7.37;6.67;;;;;;;14.73;100.00;99845.72;5010029;28;20220;-74
2021/08/06 04:31:06;;;;;;;8.17;7.37;;;;;;;14.73;100.00;99837.84;5008930;28;20298;-73
2021/08/06 04:33:33;;;;;;;8.40;7.60;;;;;;;14.74;100.00;99839.56;5009608;28;20525;-73
2021/08/06 04:36:00;;;;;;;8.93;7.33;;;;;;;14.74;100.00;99842.19;5006456;28;20207;-73
2021/08/06 04:38:27;;;;;;;11.10;6.83;;;;;;;14.81;100.00;99840.91;5027087;28;20308;-71
2021/08/06 04:40:53;;;;;;;8.57;7.23;;;;;;;14.82;100.00;99845.19;5003845;28;20255;-73
2021/08/06 04:43:20;;;;;;;7.57;6.83;;;;;;;14.84;100.00;99850.38;5027451;28;20258;-73
2021/08/06 04:45:48;;;;;;;8.07;7.23;;;;;;;14.89;100.00;99837.84;5011231;28;20200;-73
2021/08/06 04:48:19;;;;;;;8.53;7.63;;;;;;;14.93;100.00;99844.59;5036976;28;20207;-76
2021/08/06 04:50:46;;;;;;;7.77;7.03;;;;;;;14.93;100.00;99834.97;5011331;28;20204;-73
2021/08/06 04:53:13;;;;;;;8.40;7.50;;;;;;;14.94;100.00;99843.66;5040366;28;20654;-74
2021/08/06 04:55:39;;;;;;;8.40;7.30;;;;;;;14.96;100.00;99836.53;5010131;28;20287;-73
2021/08/06 04:58:07;;;;;;;10.13;9.10;;;;;;;14.95;100.00;99835.72;5006511;28;20234;-73
2021/08/06 05:00:34;;;;;;;9.13;8.23;;;;;;;14.98;100.00;99833.84;5006465;28;20208;-74
2021/08/06 05:03:03;;;;;;;9.13;8.20;;;;;;;15.01;100.00;99837.13;5004348;28;20312;-73
2021/08/06 05:05:37;;;;;;;9.27;8.33;;;;;;;15.06;100.00;99844.75;5011166;28;20696;-73
2021/08/06 05:08:05;;;;;;;9.77;8.77;;;;;;;15.12;100.00;99849.66;5011731;28;20215;-74
2021/08/06 05:10:32;;;;;;;9.53;8.60;;;;;;;15.17;100.00;99850.22;5006985;28;20211;-73
2021/08/06 05:12:58;;;;;;;8.97;8.07;;;;;;;15.27;100.00;99840.06;5035605;28;20341;-72
2021/08/06 05:15:25;;;;;;;9.53;8.57;;;;;;;15.35;100.00;99850.94;5011351;28;20286;-74
2021/08/06 05:17:54;;;;;;;9.40;8.40;;;;;;;15.41;100.00;99839.22;5011934;28;20566;-72
2021/08/06 05:20:21;;;;;;;9.07;8.13;;;;;;;15.51;100.00;99843.88;5008572;28;20209;-74
2021/08/06 05:22:49;;;;;;;10.83;8.73;;;;;;;15.57;100.00;99836.56;5011518;28;20222;-73
2021/08/06 05:25:18;;;;;;;9.87;8.87;;;;;;;15.63;100.00;99836.19;5003791;28;20195;-73
2021/08/06 05:27:45;;;;;;;10.77;8.23;;;;;;;15.68;100.00;99836.75;5010375;28;20280;-73
2021/08/06 05:30:12;;;;;;;10.70;8.20;;;;;;;15.73;100.00;99837.31;5010793;28;20543;-73
2021/08/06 05:32:41;;;;;;;8.87;7.97;;;;;;;15.79;100.00;99839.59;5006963;28;20242;-72
2021/08/06 05:35:09;;;;;;;8.73;7.83;;;;;;;15.84;100.00;99845.44;5011175;28;20207;-73
2021/08/06 05:37:37;;;;;;;8.57;7.67;;;;;;;15.89;100.00;99837.28;5014061;28;20715;-72
2021/08/06 05:40:07;;;;;;;8.60;7.70;;;;;;;15.97;100.00;99845.56;5015186;28;20254;-74
2021/08/06 05:42:37;;;;;;;10.07;7.90;;;;;;;16.04;100.00;99843.38;5008480;28;20695;-73
2021/08/06 05:45:05;;;;;;;9.60;8.10;;;;;;;16.11;100.00;99835.97;5011547;28;20528;-74
2021/08/06 05:47:42;;;;;;;10.73;8.13;;;;;;;16.19;100.00;99833.72;5012761;28;20199;-73
2021/08/06 05:50:10;;;;;;;8.07;7.27;;;;;;;16.23;100.00;99841.28;5006769;28;20209;-74
2021/08/06 05:52:37;;;;;;;8.53;7.60;;;;;;;16.30;100.00;99846.19;5009575;28;20307;-72
2021/08/06 05:55:06;;;;;;;9.37;7.63;;;;;;;16.35;100.00;99839.69;5011439;28;20207;-73
2021/08/06 05:57:33;;;;;;;10.07;7.80;;;;;;;16.41;100.00;99841.94;5007369;28;20228;-74
2021/08/06 06:00:00;;;;;;;8.53;7.73;;;;;;;16.46;100.00;99842.50;5038812;28;20426;-72
2021/08/06 06:02:26;;;;;;;8.37;7.23;;;;;;;16.52;100.00;99845.69;5019094;28;20219;-74
2021/08/06 06:05:03;;;;;;;7.00;6.30;;;;;;;16.54;100.00;99838.53;5015357;28;20298;-71
2021/08/06 06:07:29;;;;;;;8.13;7.33;;;;;;;16.62;100.00;99845.00;5013770;28;20199;-74
2021/08/06 06:09:56;;;;;;;7.90;7.10;;;;;;;16.64;100.00;99848.38;5021157;28;20279;-74
2021/08/06 06:12:24;;;;;;;7.37;6.67;;;;;;;16.68;100.00;99840.31;5020893;28;20224;-73
2021/08/06 06:14:51;;;;;;;7.27;6.57;;;;;;;16.70;100.00;99844.50;5035469;28;20563;-72
2021/08/06 06:17:17;;;;;;;6.47;5.87;;;;;;;16.69;100.00;99849.88;5015960;28;20212;-74
2021/08/06 06:19:46;;;;;;;5.83;5.33;;;;;;;16.71;100.00;99853.25;5014751;28;20207;-73
2021/08/06 06:22:13;;;;;;;6.40;5.70;;;;;;;16.76;100.00;99848.53;5036441;28;20227;-74
2021/08/06 06:24:40;;;;;;;5.90;5.30;;;;;;;16.80;100.00;99850.03;5014063;28;20268;-74
2021/08/06 06:27:07;;;;;;;6.70;5.73;;;;;;;16.83;100.00;99850.72;5013354;28;20215;-74
2021/08/06 06:29:35;;;;;;;8.63;6.30;;;;;;;16.84;100.00;99847.13;5013355;28;20209;-74
2021/08/06 06:32:01;;;;;;;7.87;6.00;;;;;;;16.81;100.00;99844.66;5032727;28;20235;-74
2021/08/06 06:34:28;;;;;;;8.33;5.80;;;;;;;16.90;100.00;99855.56;5019335;28;20229;-73
2021/08/06 06:36:55;;;;;;;6.63;5.53;;;;;;;16.97;100.00;99848.97;5013939;28;20219;-72
2021/08/06 06:39:22;;;;;;;5.67;4.97;;;;;;;17.05;100.00;99840.59;5019181;28;20215;-74
2021/08/06 06:41:49;;;;;;;5.03;4.60;;;;;;;17.14;100.00;99846.06;5014563;28;20216;-74
2021/08/06 06:44:26;;;;;;;6.43;4.60;;;;;;;17.28;100.00;99849.59;5032358;28;20196;-74
2021/08/06 06:46:54;;;;;;;5.33;4.60;;;;;;;17.45;100.00;99849.31;5016683;28;20274;-75
2021/08/06 06:49:21;;;;;;;4.73;4.33;;;;;;;17.56;99.24;99851.22;5017429;28;20196;-74
2021/08/06 06:51:47;;;;;;;4.90;4.40;;;;;;;17.76;100.00;99848.09;5011340;28;20674;-75
2021/08/06 06:54:14;;;;;;;6.07;3.80;;;;;;;17.87;97.57;99854.44;5039434;28;20357;-74
2021/08/06 06:56:41;;;;;;;3.60;3.30;;;;;;;17.94;97.61;99855.69;5016439;28;20208;-74
2021/08/06 06:59:07;;;;;;;4.03;3.70;;;;;;;17.94;95.89;99855.69;5018063;28;20224;-73
2021/08/06 07:01:34;;;;;;;4.57;3.70;;;;;;;17.93;96.07;99857.50;5014020;28;20303;-75
2021/08/06 07:04:01;;;;;;;3.97;3.60;;;;;;;17.96;94.24;99867.84;5016886;28;20196;-73
2021/08/06 07:06:28;;;;;;;3.63;3.10;;;;;;;18.07;94.93;99866.25;5012837;28;20236;-72
2021/08/06 07:08:55;;;;;;;4.07;3.63;;;;;;;18.11;95.76;99868.56;5023148;28;20517;-73
2021/08/06 07:11:22;;;;;;;3.93;3.53;;;;;;;18.11;95.78;99873.00;5015115;28;20680;-72
2021/08/06 07:13:48;;;;;;;4.90;3.43;;;;;;;18.08;94.49;99879.34;5036016;28;20193;-74
2021/08/06 07:16:16;;;;;;;3.87;3.37;;;;;;;18.12;95.05;99872.91;5038304;28;20212;-72
2021/08/06 07:18:43;;;;;;;5.40;4.10;;;;;;;18.15;95.30;99871.81;5011011;28;20211;-75
2021/08/06 07:21:12;;;;;;;4.23;3.83;;;;;;;18.17;95.18;99870.78;5029498;28;20496;-71
2021/08/06 07:23:40;;;;;;;3.63;3.33;;;;;;;18.27;95.57;99870.13;4999579;28;20225;-74
2021/08/06 07:26:07;;;;;;;4.13;3.80;;;;;;;18.29;96.61;99881.41;5012620;28;20691;-74
2021/08/06 07:28:34;;;;;;;4.60;4.20;;;;;;;18.21;95.12;99881.13;5028145;28;20303;-73
2021/08/06 07:31:01;;;;;;;4.10;3.70;;;;;;;18.22;95.17;99878.34;5011373;28;20222;-74
2021/08/06 07:33:27;;;;;;;5.57;4.00;;;;;;;18.23;94.52;99882.69;5011402;28;20319;-74
2021/08/06 07:35:55;;;;;;;3.87;3.57;;;;;;;18.29;94.11;99877.00;5008437;28;20227;-74
2021/08/06 07:38:23;;;;;;;3.90;3.50;;;;;;;18.43;94.55;99889.19;5016019;28;20255;-73
2021/08/06 07:40:50;;;;;;;5.00;3.27;;;;;;;18.47;92.79;99890.69;5006853;28;20196;-72
2021/08/06 07:43:16;;;;;;;4.10;3.60;;;;;;;18.56;90.42;99899.75;5017843;28;20219;-74
2021/08/06 07:45:46;;;;;;;3.60;3.30;;;;;;;18.69;90.70;99897.91;5005591;28;20203;-74
2021/08/06 07:48:13;;;;;;;3.20;2.93;;;;;;;18.84;88.46;99903.94;5011666;28;20290;-73
2021/08/06 07:50:40;;;;;;;4.57;3.77;;;;;;;19.00;88.26;99905.47;5027360;28;20200;-73
2021/08/06 07:53:07;;;;;;;3.40;3.10;;;;;;;19.04;86.96;99905.13;5011271;28;20646;-75
2021/08/06 07:55:35;;;;;;;3.40;3.10;;;;;;;19.19;88.37;99897.03;5002052;28;20200;-74
2021/08/06 07:58:01;;;;;;;3.57;3.20;;;;;;;19.22;80.03;99908.19;5011922;28;20227;-74
2021/08/06 08:00:28;;;;;;;3.27;2.97;;;;;;;19.37;81.07;99903.59;5017240;28;20594;-72
2021/08/06 08:02:55;;;;;;;3.20;2.90;;;;;;;19.47;80.30;99909.03;5024291;28;20228;-73
2021/08/06 08:05:28;;;;;;;2.70;2.50;;;;;;;19.62;79.91;99912.34;5003758;28;20669;-74
2021/08/06 08:07:58;;;;;;;2.43;2.23;;;;;;;19.73;77.23;99912.34;5011432;28;20203;-73
2021/08/06 08:10:27;;;;;;;2.77;2.57;;;;;;;19.81;76.89;99910.03;5008177;28;20204;-72
2021/08/06 08:12:55;;;;;;;2.57;2.37;;;;;;;19.78;72.74;99914.69;5012439;28;20231;-74
2021/08/06 08:15:21;;;;;;;2.70;2.50;;;;;;;19.94;75.57;99909.06;5028188;28;20203;-73
2021/08/06 08:17:48;;;;;;;2.83;2.63;;;;;;;20.14;75.23;99903.09;5014477;28;20207;-74
2021/08/06 08:20:15;;;;;;;2.93;2.70;;;;;;;20.23;74.64;99904.19;5012686;28;20208;-74
2021/08/06 08:22:41;;;;;;;2.63;2.30;;;;;;;20.17;70.10;99915.25;5010105;28;20319;-73
2021/08/06 08:25:09;;;;;;;2.73;2.43;;;;;;;20.29;70.65;99911.63;5016456;28;20207;-74
2021/08/06 08:27:37;;;;;;;2.10;1.90;;;;;;;20.40;68.31;99913.44;5012064;28;20199;-74
2021/08/06 08:30:07;;;;;;;2.10;1.37;;;;;;;20.48;64.12;99926.94;5013023;28;20216;-73
2021/08/06 08:32:34;;;;;;;2.43;2.23;;;;;;;20.62;67.10;99917.94;5013706;28;20238;-73
2021/08/06 08:35:00;;;;;;;3.47;2.77;;;;;;;20.59;68.18;99912.84;5014338;28;20211;-73
2021/08/06 08:37:27;;;;;;;3.00;2.70;;;;;;;20.61;65.88;99925.03;5037665;28;20293;-74
2021/08/06 08:39:53;;;;;;;3.10;2.67;;;;;;;20.78;66.40;99913.09;5010651;28;20697;-74
2021/08/06 08:42:21;;;;;;;2.40;2.20;;;;;;;20.92;65.53;99914.63;5009806;28;20289;-73
2021/08/06 08:44:48;;;;;;;3.20;2.37;;;;;;;21.14;65.34;99910.22;5013357;28;20230;-74
2021/08/06 08:47:22;;;;;;;2.80;2.50;;;;;;;21.24;61.98;99919.09;5009368;28;20605;-73
2021/08/06 08:49:51;;;;;;;4.30;2.20;;;;;;;21.34;64.21;99912.09;5029048;28;20681;-74
2021/08/06 08:52:18;;;;;;;2.90;2.40;;;;;;;21.32;66.68;99898.13;5014544;28;20326;-73
2021/08/06 08:54:45;;;;;;;4.10;2.27;;;;;;;21.36;62.66;99907.50;5010166;28;20231;-73
2021/08/06 08:57:12;;;;;;;3.63;2.27;;;;;;;21.50;61.34;99909.03;5012352;28;20266;-74
2021/08/06 08:59:39;;;;;;;2.03;1.93;;;;;;;21.63;59.25;99905.34;5030367;28;20223;-73
2021/08/06 09:02:09;;;;;;;2.13;1.93;;;;;;;21.85;59.74;99907.06;5010193;28;20251;-73
2021/08/06 09:04:37;;;;;;;2.33;1.87;;;;;;;22.06;60.62;99902.56;5012439;28;20208;-74
2021/08/06 09:07:05;;;;;;;3.10;2.03;;;;;;;22.11;59.33;99902.19;5025239;28;20223;-72
2021/08/06 09:10:06;;;;;;;1.80;1.70;;;;;;;22.16;56.81;99907.06;5026909;28;20689;-74
2021/08/06 09:12:59;;;;;;;3.00;2.13;;;;;;;22.21;58.91;99899.56;5024104;28;20246;-74
2021/08/06 09:15:47;;;;;;;2.33;2.13;;;;;;;22.38;60.09;99893.66;5009742;28;20718;-74
2021/08/06 09:18:29;;;;;;;2.40;2.00;;;;;;;22.45;58.19;99896.63;5010649;28;20303;-74
2021/08/06 09:21:00;;;;;;;3.63;2.30;;;;;;;22.50;57.21;99895.22;5038370;28;20235;-73
2021/08/06 09:23:47;;;;;;;2.53;2.33;;;;;;;22.24;56.44;99897.47;5026930;28;20246;-72
2021/08/06 09:26:40;;;;;;;3.27;2.60;;;;;;;22.49;57.29;99895.38;5031046;28;20216;-74
2021/08/06 09:29:09;;;;;;;2.93;2.37;;;;;;;22.88;51.81;99900.78;5029379;28;20224;-72
2021/08/06 09:31:37;;;;;;;3.67;2.70;;;;;;;22.96;53.01;99902.75;5027458;28;20208;-74
2021/08/06 09:34:13;;;;;;;3.03;2.20;;;;;;;23.03;53.44;99894.09;5033187;28;20212;-73
2021/08/06 09:36:54;;;;;;;4.50;2.55;;;;;;;23.14;56.22;99894.97;5029123;28;20218;-74
2021/08/06 09:39:21;;;;;;;3.20;2.20;;;;;;;23.30;54.39;99889.94;5025560;28;20784;-74
2021/08/06 09:41:48;;;;;;;2.83;2.60;;;;;;;23.22;51.33;99893.31;5029263;28;20300;-73
2021/08/06 09:44:16;;;;;;;4.28;2.70;;;;;;;23.28;52.78;99885.75;5032318;28;20196;-72
2021/08/06 09:46:43;;;;;;;3.00;2.35;;;;;;;23.35;49.78;99886.88;5022760;28;20212;-72
2021/08/06 09:49:10;;;;;;;3.78;2.60;;;;;;;23.36;53.62;99884.06;5027318;28;20619;-74
2021/08/06 09:51:38;;;;;;;3.42;2.55;;;;;;;23.44;54.93;99878.03;5024119;28;20224;-74
2021/08/06 09:54:19;;;;;;;2.55;2.20;;;;;;;23.47;53.81;99885.75;5025179;28;20227;-73
2021/08/06 09:56:46;;;;;;;3.10;2.38;;;;;;;23.53;51.48;99885.16;5027974;28;20211;-75
2021/08/06 09:59:13;;;;;;;3.40;2.25;;;;;;;23.61;55.55;99877.31;5023785;28;20224;-73
2021/08/06 10:01:40;;;;;;;4.10;2.10;;;;;;;23.51;55.40;99881.81;5026380;28;20690;-74
2021/08/06 10:04:14;;;;;;;2.70;2.42;;;;;;;23.27;52.73;99879.59;5026013;28;20200;-74
2021/08/06 10:06:56;;;;;;;2.40;2.20;;;;;;;23.20;55.35;99878.44;5026694;28;20206;-73
2021/08/06 10:09:25;;;;;;;2.50;2.30;;;;;;;23.28;55.75;99873.28;5029985;28;20216;-72
2021/08/06 10:11:52;;;;;;;2.75;2.15;;;;;;;23.31;55.29;99872.19;5029982;28;20235;-73
2021/08/06 10:14:19;;;;;;;2.45;2.25;;;;;;;23.58;54.21;99869.59;5007311;28;20548;-74
2021/08/06 10:16:45;;;;;;;3.92;2.38;;;;;;;23.74;55.32;99870.84;5023667;28;20665;-73
2021/08/06 10:19:11;;;;;;;3.47;2.30;;;;;;;23.74;55.08;99862.88;5025270;28;20223;-74
2021/08/06 10:21:38;;;;;;;3.63;2.15;;;;;;;23.92;58.73;99855.00;5026093;28;20228;-73
2021/08/06 10:24:05;;;;;;;2.13;1.95;;;;;;;23.87;51.70;99870.56;5026326;28;20303;-74
2021/08/06 10:26:33;;;;;;;2.35;2.15;;;;;;;24.21;50.21;99862.88;5024475;28;20203;-74
2021/08/06 10:29:00;;;;;;;2.50;2.30;;;;;;;24.35;52.75;99867.72;5021610;28;20205;-72
2021/08/06 10:31:27;;;;;;;2.30;2.10;;;;;;;24.29;51.89;99868.34;5024118;28;20204;-74
2021/08/06 10:34:04;;;;;;;3.10;2.47;;;;;;;24.18;52.82;99853.34;5022425;28;20211;-74
2021/08/06 10:36:41;;;;;;;4.00;2.20;;;;;;;24.01;51.94;99851.50;5026204;28;20224;-72
2021/08/06 10:39:43;;;;;;;2.30;2.10;;;;;;;23.98;51.87;99852.59;5028930;28;20216;-74
2021/08/06 10:42:11;;;;;;;2.65;2.30;;;;;;;23.96;49.46;99857.25;5025237;28;20235;-75
2021/08/06 10:44:57;;;;;;;3.25;2.25;;;;;;;24.02;50.28;99857.66;5025854;28;20196;-74
2021/08/06 10:47:50;;;;;;;2.42;2.10;;;;;;;23.91;50.17;99853.34;5023821;28;20240;-73
2021/08/06 10:50:18;;;;;;;2.17;2.00;;;;;;;23.83;51.92;99845.22;5024784;28;20209;-74
2021/08/06 10:53:19;;;;;;;3.33;2.10;;;;;;;23.95;52.01;99846.72;5016091;28;20224;-74
2021/08/06 10:55:45;;;;;;;4.32;2.22;;;;;;;24.04;52.19;99837.88;5025159;28;20208;-74
2021/08/06 11:04:52;;;;;;;2.22;2.03;;;;;;;24.25;50.61;99837.63;5066114;28;20202;-73
2021/08/06 11:11:06;;;;;;;2.50;2.20;;;;;;;24.53;48.79;99834.97;5055748;28;20407;-73
2021/08/06 11:13:54;;;;;;;3.70;2.10;;;;;;;24.96;50.20;99828.13;5064572;28;20190;-73
2021/08/06 11:16:22;;;;;;;2.38;2.05;;;;;;;25.45;49.67;99827.69;5063314;28;20202;-73
2021/08/06 11:18:51;;;;;;;2.45;2.25;;;;;;;25.42;49.62;99825.38;5061565;28;20198;-73
2021/08/06 11:25:14;;;;;;;2.40;2.20;;;;;;;25.26;49.95;99813.56;5041705;22;20335;-73
2021/08/06 11:28:05;;;;;;;2.30;2.10;;;;;;;25.11;46.72;99825.75;5014980;28;20200;-74
2021/08/06 11:30:36;;;;;;;3.35;2.05;;;;;;;25.10;48.10;99821.38;5021062;28;20206;-75
2021/08/06 11:33:04;;;;;;;3.15;2.30;;;;;;;25.08;46.45;99820.72;5018770;28;20330;-75
2021/08/06 11:35:36;;;;;;;2.17;1.98;;;;;;;24.94;47.30;99812.28;5002109;28;20681;-76
2021/08/06 11:38:05;;;;;;;2.80;2.47;;;;;;;24.87;46.76;99819.22;5021308;28;20208;-76
2021/08/06 11:40:35;;;;;;;2.58;2.03;;;;;;;24.82;47.48;99804.63;5015927;28;20224;-74
2021/08/06 11:43:10;;;;;;;2.80;2.30;;;;;;;24.73;48.87;99801.06;5018479;28;20219;-76
2021/08/06 11:45:37;;;;;;;2.42;2.10;;;;;;;24.69;49.74;99802.34;5021468;28;20199;-75
2021/08/06 11:48:04;;;;;;;2.20;2.00;;;;;;;24.49;48.62;99806.97;5017205;28;20215;-75
2021/08/06 11:50:41;;;;;;;2.40;2.20;;;;;;;24.48;49.91;99797.28;5016258;28;20661;-76
2021/08/06 11:53:15;;;;;;;2.88;2.20;;;;;;;24.39;50.48;99796.34;5017655;28;20259;-76
2021/08/06 11:55:44;;;;;;;2.40;2.20;;;;;;;24.19;48.67;99796.47;5018525;28;20199;-75
2021/08/06 11:58:10;;;;;;;2.78;2.30;;;;;;;24.14;48.20;99801.38;5018257;28;20608;-73
2021/08/06 12:00:39;;;;;;;2.53;2.33;;;;;;;24.04;46.64;99799.75;5016444;28;20235;-75
2021/08/06 12:03:08;;;;;;;2.40;2.20;;;;;;;24.34;47.01;99785.31;5016925;28;20224;-75
2021/08/06 12:05:37;;;;;;;2.50;2.22;;;;;;;24.74;45.98;99787.59;5018143;28;20277;-72
2021/08/06 12:08:14;;;;;;;2.92;2.35;;;;;;;24.82;45.07;99786.84;5016214;28;20204;-75
2021/08/06 12:10:43;;;;;;;2.17;1.98;;;;;;;24.75;46.84;99775.13;5014430;28;20422;-76
2021/08/06 12:13:11;;;;;;;2.50;2.30;;;;;;;24.60;45.99;99773.97;5004902;28;20224;-74
2021/08/06 12:15:38;;;;;;;2.47;2.28;;;;;;;24.53;45.99;99774.56;5004624;28;20212;-73
2021/08/06 12:18:16;;;;;;;2.58;2.22;;;;;;;24.45;46.14;99774.44;5002591;28;20689;-75
2021/08/06 12:28:22;;;;;;;2.30;2.10;;;;;;;24.43;46.57;99764.91;5007051;28;20335;-75
2021/08/06 12:30:48;;;;;;;2.50;2.10;;;;;;;24.76;44.46;99758.94;5003158;28;20193;-75
2021/08/06 12:33:22;;;;;;;3.53;2.30;;;;;;;24.96;43.52;99756.13;5005563;28;20220;-74
2021/08/06 12:35:48;;;;;;;2.40;2.20;;;;;;;24.83;44.28;99750.34;5000923;28;20217;-74